Date,TemperatureHighF,TemperatureAvgF,TemperatureLowF,DewpointHighF,DewpointAvgF,DewpointLowF,HumidityHigh,HumidityAvg,HumidityLow,PressureMaxIn,PressureMinIn,WindSpeedMaxMPH,WindSpeedAvgMPH,GustSpeedMaxMPH,PrecipitationSumIn
2013-1-1,40,35,31,37,34,30,98,94,86,30.50,30.36,9,1,10,0.00
2013-1-2,42,35,30,34,30,26,97,85,61,30.36,30.19,7,0,8,0.02
2013-1-3,41,34,27,34,29,26,97,85,61,30.20,30.10,10,0,13,0.30
2013-1-4,45,41,35,44,40,34,98,97,91,30.30,30.16,13,1,15,0.03
2013-1-5,43,41,40,42,40,39,98,96,92,30.21,30.11,4,0,4,0.07
2013-1-6,43,41,38,40,39,37,97,95,90,30.17,29.97,12,2,20,0.05
2013-1-7,50,45,40,48,43,39,98,95,86,30.16,29.79,15,1,20,0.02
2013-1-8,49,44,39,48,43,38,99,96,89,30.16,29.70,16,2,29,0.79
2013-1-9,48,40,33,47,40,32,98,97,96,29.95,29.68,10,1,14,0.68
2013-1-10,36,34,32,36,33,30,98,97,95,30.13,29.94,0,0,0,0.02
2013-1-11,36,31,28,30,26,22,95,82,57,30.33,30.12,17,1,18,0.00
2013-1-12,35,30,27,30,26,24,96,88,72,30.44,30.32,9,0,11,0.00
2013-1-13,34,30,27,30,28,25,96,90,80,30.50,30.43,1,0,1,0.00
2013-1-14,37,32,29,31,29,28,95,89,74,30.57,30.47,5,0,7,0.00
2013-1-15,38,34,31,35,32,28,95,92,86,30.70,30.56,4,0,4,0.00
2013-1-16,41,34,29,36,32,28,97,92,79,30.68,30.52,10,0,10,0.02
2013-1-17,36,34,31,35,33,30,98,97,95,30.53,30.29,3,0,3,0.00
2013-1-18,36,34,32,35,33,31,99,98,97,30.36,30.26,6,0,8,0.00
2013-1-19,39,36,34,37,35,33,98,96,92,30.39,30.34,7,0,9,0.00
2013-1-20,43,38,34,40,36,33,98,95,86,30.40,30.27,8,1,10,0.00
2013-1-21,38,36,32,37,35,32,98,97,94,30.28,30.14,7,0,8,0.00
2013-1-22,38,34,30,36,33,29,99,97,92,30.14,29.91,3,0,3,0.00
2013-1-23,42,39,36,40,38,34,98,96,88,30.14,29.85,13,1,14,0.30
2013-1-24,42,40,37,40,38,36,99,97,91,30.21,30.05,8,1,10,0.19
2013-1-25,48,43,38,46,41,36,99,92,79,30.07,29.92,7,1,13,0.02
2013-1-26,43,40,37,41,38,36,97,94,90,30.04,29.88,10,0,12,0.12
2013-1-27,41,38,33,39,37,32,98,94,90,30.06,29.98,7,0,7,0.00
2013-1-28,40,38,35,39,37,34,98,97,95,30.09,30.01,2,0,2,0.18
2013-1-29,45,42,39,45,41,38,99,98,96,30.34,30.09,3,0,3,0.22
2013-1-30,47,44,42,46,44,42,99,98,97,30.39,30.31,4,0,4,0.05
2013-1-31,49,45,44,46,44,44,99,97,90,30.40,30.28,13,1,14,0.04
2013-2-1,48,44,40,46,42,38,98,94,83,30.42,30.34,10,1,12,0.00
2013-2-2,45,41,38,42,40,37,97,94,88,30.40,30.26,16,1,18,0.00
2013-2-3,48,42,38,44,41,37,98,95,86,30.30,30.21,8,1,10,0.02
2013-2-4,48,44,42,43,42,40,96,91,79,30.21,29.89,8,1,11,0.00
2013-2-5,46,43,42,45,42,40,97,95,88,29.92,29.83,13,2,26,0.43
2013-2-6,46,42,40,44,41,39,97,95,88,30.05,29.79,12,2,14,0.32
2013-2-7,48,41,35,41,38,33,96,87,72,30.20,29.80,12,2,19,0.09
2013-2-8,43,38,32,39,36,31,98,93,82,30.31,30.19,6,0,7,0.02
2013-2-9,44,40,37,40,38,36,97,94,81,30.35,30.27,3,0,3,0.03
2013-2-10,41,40,39,40,39,38,98,96,93,30.39,30.33,3,0,3,0.00
2013-2-11,46,42,39,42,40,38,98,93,81,30.36,30.32,8,0,11,0.02
2013-2-12,50,44,41,46,42,40,98,94,83,30.40,30.26,8,0,10,0.03
2013-2-13,47,44,42,44,42,41,98,94,88,30.50,30.31,5,0,5,0.04
2013-2-14,46,43,41,44,42,40,97,95,92,30.57,30.48,6,1,8,0.02
2013-2-15,52,45,38,45,42,37,97,90,74,30.56,30.19,13,2,15,0.00
2013-2-16,50,43,38,46,41,37,98,93,79,30.20,30.12,12,1,18,0.00
2013-2-17,44,40,36,40,37,35,96,92,80,30.25,30.11,4,0,4,0.06
2013-2-18,44,39,36,39,36,35,98,90,74,30.11,29.78,8,1,13,0.00
2013-2-19,47,40,34,41,36,33,96,87,65,30.02,29.75,13,1,18,0.02
2013-2-20,43,39,34,40,37,32,97,94,83,30.05,29.99,8,1,12,0.14
2013-2-21,43,40,36,40,38,36,98,93,83,30.07,30.00,10,1,15,0.02
2013-2-22,47,40,35,44,38,32,97,91,72,30.04,29.67,16,3,30,0.45
2013-2-23,47,38,32,40,35,30,97,87,67,30.37,29.89,6,1,7,0.00
2013-2-24,45,41,37,41,38,34,95,90,81,30.37,29.95,11,2,15,0.06
2013-2-25,50,41,33,39,35,29,97,81,44,30.31,29.87,13,1,17,0.11
2013-2-26,45,39,32,38,36,30,97,88,69,30.34,30.19,14,2,18,0.03
2013-2-27,47,42,37,42,39,36,97,92,75,30.30,30.20,8,1,9,0.11
2013-2-28,51,45,40,49,44,39,98,96,91,30.32,30.19,11,2,18,0.32
2013-3-1,55,51,49,51,49,47,98,93,86,30.34,30.26,20,3,28,0.02
2013-3-2,55,48,38,49,45,36,96,90,75,30.27,30.06,16,3,18,0.07
2013-3-3,50,40,34,40,36,33,98,86,60,30.32,30.20,6,0,8,0.00
2013-3-4,48,40,32,38,33,31,96,77,53,30.31,29.95,11,2,13,0.00
2013-3-5,48,42,38,41,37,32,97,84,68,29.95,29.75,5,0,5,0.18
2013-3-6,42,40,39,41,39,37,98,95,90,29.90,29.60,16,2,24,0.41
2013-3-7,50,43,40,44,41,38,98,93,77,30.11,29.90,8,1,12,0.08
2013-3-8,50,42,35,42,38,34,97,86,68,30.25,30.09,11,2,14,0.00
2013-3-9,52,41,32,42,37,31,98,87,67,30.50,30.25,6,1,7,0.00
2013-3-10,47,42,37,42,39,35,97,92,76,30.50,30.43,5,0,5,0.00
2013-3-11,49,44,42,44,42,40,98,92,77,30.45,30.15,6,0,6,0.04
2013-3-12,54,49,45,50,47,44,98,94,86,30.16,30.05,13,3,20,0.04
2013-3-13,53,50,48,49,47,46,97,92,86,30.19,30.09,14,2,23,0.00
2013-3-14,53,49,47,47,45,44,97,88,71,30.14,30.03,16,2,18,0.02
2013-3-15,58,50,43,50,46,42,98,88,71,30.20,30.14,12,1,16,0.00
2013-3-16,53,45,35,46,40,33,95,85,57,30.15,29.87,16,1,24,0.00
2013-3-17,50,39,32,38,34,30,97,84,58,30.19,29.98,16,1,17,0.00
2013-3-18,50,42,35,39,36,33,92,79,61,30.26,30.10,10,1,16,0.00
2013-3-19,52,41,35,42,36,32,97,86,51,30.24,29.61,7,0,10,0.71
2013-3-20,51,45,36,48,41,32,98,85,65,30.02,29.37,15,2,22,0.82
2013-3-21,46,38,32,38,34,30,96,86,67,30.22,30.02,13,1,18,0.06
2013-3-22,42,36,32,37,33,30,97,89,66,30.38,30.22,4,0,4,0.04
2013-3-23,48,39,33,38,33,30,97,81,53,30.40,30.30,5,0,6,0.00
2013-3-24,51,41,33,38,34,28,95,76,41,30.31,30.14,0,0,0,0.00
2013-3-25,57,47,36,36,33,30,88,61,39,30.14,29.96,7,1,10,0.00
2013-3-26,58,49,43,43,38,33,80,67,53,30.04,29.98,6,0,7,0.00
2013-3-27,56,48,43,47,42,38,91,78,60,30.02,29.96,8,0,10,0.00
2013-3-28,59,49,44,50,45,41,97,87,64,30.17,30.01,5,0,7,0.06
2013-3-29,60,51,44,51,45,41,95,81,57,30.27,30.17,11,1,13,0.02
2013-3-30,62,51,38,48,43,37,96,75,53,30.28,30.09,14,3,19,0.00
2013-3-31,65,55,46,47,43,39,79,63,43,30.10,29.94,10,2,12,0.00
2013-4-1,59,50,43,49,45,40,95,84,63,30.16,29.98,9,1,11,0.00
2013-4-2,57,48,42,47,44,40,94,85,68,30.21,30.16,9,1,12,0.00
2013-4-3,59,50,42,48,44,41,95,81,62,30.21,29.98,8,1,11,0.00
2013-4-4,52,50,47,51,47,43,98,92,81,29.98,29.65,12,1,21,0.58
2013-4-5,56,50,46,51,48,45,97,91,76,29.87,29.72,11,2,21,0.40
2013-4-6,54,47,43,47,44,41,98,88,64,29.91,29.69,12,2,18,0.25
2013-4-7,46,43,39,44,41,37,97,94,86,29.91,29.55,8,1,10,0.87
2013-4-8,55,46,41,46,43,40,98,89,67,30.28,29.91,7,0,8,0.04
2013-4-9,53,46,40,45,41,39,96,83,59,30.35,30.18,10,1,16,0.03
2013-4-10,62,50,45,54,46,41,98,85,69,30.27,29.94,12,2,18,0.28
2013-4-11,50,45,41,45,41,39,96,88,70,30.31,30.21,9,1,10,0.12
2013-4-12,44,42,39,42,39,37,97,91,75,30.21,29.68,13,2,19,0.10
2013-4-13,52,43,34,43,39,32,96,86,67,30.02,29.75,14,1,21,0.13
2013-4-14,51,42,37,42,38,35,97,85,62,30.03,29.94,11,0,14,0.06
2013-4-15,53,44,34,41,38,33,97,79,56,30.19,29.96,13,2,18,0.00
2013-4-16,55,45,35,42,36,28,96,72,37,30.41,30.19,14,2,19,0.00
2013-4-17,60,47,38,43,38,32,90,73,45,30.45,30.41,12,1,15,0.00
2013-4-18,50,46,40,46,42,37,92,86,79,30.46,30.19,9,1,14,0.00
2013-4-19,54,50,48,52,48,46,97,95,91,30.20,30.06,13,1,15,0.33
2013-4-20,54,48,44,50,46,43,97,93,79,30.29,30.20,8,1,14,0.07
2013-4-21,50,45,40,46,42,38,98,91,74,30.38,30.24,15,1,16,0.07
2013-4-22,58,48,39,41,32,22,90,59,29,30.54,30.38,15,3,20,0.00
2013-4-23,61,48,37,38,33,26,83,58,31,30.44,30.27,14,2,20,0.00
2013-4-24,67,53,40,44,37,33,88,57,32,30.34,30.08,12,1,15,0.00
2013-4-25,68,57,44,45,40,34,82,56,39,30.17,30.06,8,1,9,0.00
2013-4-26,66,52,43,52,46,41,96,80,52,30.28,30.17,8,0,8,0.00
2013-4-27,57,52,48,49,46,43,88,77,70,30.22,30.15,14,0,17,0.00
2013-4-28,57,50,46,49,45,41,94,83,62,30.23,29.94,10,1,22,0.00
2013-4-29,54,47,43,45,40,36,95,78,53,30.17,29.92,10,1,11,0.02
2013-4-30,51,45,36,38,36,33,92,70,56,30.45,30.16,8,0,10,0.00
2013-5-1,60,49,36,40,34,28,90,59,32,30.59,30.45,12,1,15,0.00
2013-5-2,66,55,43,41,37,32,75,53,34,30.57,30.39,14,2,19,0.00
2013-5-3,68,59,50,48,44,39,72,59,46,30.40,30.24,22,3,32,0.00
2013-5-4,75,64,53,49,43,35,72,49,27,30.26,30.03,15,3,20,0.00
2013-5-5,80,67,53,49,45,40,63,46,28,30.03,29.80,12,2,17,0.00
2013-5-6,83,68,55,52,48,44,71,49,30,29.88,29.78,11,1,14,0.00
2013-5-7,70,59,49,56,51,46,93,75,57,30.02,29.85,8,0,8,0.00
2013-5-8,62,55,50,53,50,47,92,83,72,30.17,30.02,7,0,7,0.00
2013-5-9,68,55,46,56,50,44,95,83,64,30.24,30.14,6,1,6,0.00
2013-5-10,76,60,47,58,50,44,94,73,47,30.23,30.14,8,1,9,0.00
2013-5-11,80,64,52,56,51,46,88,66,41,30.20,30.02,12,1,15,0.00
2013-5-12,66,60,56,56,55,51,95,83,69,30.11,30.02,10,1,14,0.02
2013-5-13,64,56,45,55,50,39,90,81,55,30.20,29.96,12,1,18,0.06
2013-5-14,61,53,44,47,43,40,92,71,51,30.24,30.14,12,1,14,0.00
2013-5-15,64,53,46,51,46,41,94,79,52,30.15,30.03,8,1,9,0.02
2013-5-16,66,58,52,53,50,47,95,78,52,30.04,29.90,13,2,15,0.00
2013-5-17,63,56,51,51,49,47,90,78,57,30.07,29.96,12,1,16,0.00
2013-5-18,60,54,48,49,47,45,90,78,63,30.30,30.07,8,1,10,0.00
2013-5-19,61,55,49,51,49,45,94,81,67,30.42,30.29,8,0,8,0.00
2013-5-20,66,54,45,52,48,43,94,79,59,30.38,29.93,10,1,14,0.00
2013-5-21,52,48,44,50,46,43,96,93,86,29.93,29.80,9,0,13,0.55
2013-5-22,51,47,45,49,46,44,97,95,90,29.96,29.86,4,0,4,0.39
2013-5-23,56,48,44,47,44,42,96,88,69,30.03,29.94,10,1,14,0.02
2013-5-24,61,52,44,48,46,43,95,80,57,30.06,29.98,9,1,11,0.02
2013-5-25,62,54,48,49,47,45,93,79,54,30.06,29.99,9,1,10,0.04
2013-5-26,63,54,48,55,50,46,96,88,70,30.02,29.97,8,1,11,0.12
2013-5-27,56,53,49,55,51,46,97,93,87,29.98,29.73,8,1,10,0.37
2013-5-28,62,55,50,52,49,46,93,80,62,29.90,29.78,11,2,20,0.00
2013-5-29,54,51,49,52,49,46,96,92,86,29.98,29.72,14,1,19,0.37
2013-5-30,61,53,47,51,48,45,93,82,62,30.26,29.98,10,1,16,0.02
2013-5-31,62,55,48,50,47,45,94,76,54,30.37,30.25,9,1,11,0.00
2013-6-1,69,59,49,52,48,45,90,70,49,30.27,30.08,12,2,18,0.00
2013-6-2,67,59,52,54,50,47,86,73,61,30.12,30.06,9,1,13,0.02
2013-6-3,68,57,49,55,51,46,95,80,62,30.15,30.09,11,1,17,0.00
2013-6-4,74,62,48,54,49,46,95,67,42,30.16,30.06,13,2,17,0.00
2013-6-5,75,63,52,59,53,47,85,71,48,30.13,30.06,12,1,15,0.00
2013-6-6,76,64,50,56,51,48,93,67,45,30.09,30.04,10,1,15,0.00
2013-6-7,65,58,53,54,50,47,90,76,64,30.18,30.05,9,1,13,0.00
2013-6-8,63,57,52,52,49,46,81,74,63,30.21,30.13,11,1,13,0.00
2013-6-9,61,54,50,52,48,45,89,79,67,30.15,30.05,12,1,14,0.00
2013-6-10,66,56,47,51,48,43,91,74,57,30.06,29.91,7,0,9,0.00
2013-6-11,63,55,49,54,48,44,89,77,60,30.12,29.96,8,1,9,0.04
2013-6-12,66,55,46,51,47,43,95,75,52,30.17,30.11,10,1,14,0.02
2013-6-13,65,57,50,52,49,47,93,77,59,30.24,30.16,8,1,11,0.00
2013-6-14,63,56,51,52,49,48,90,79,65,30.25,30.09,6,1,9,0.00
2013-6-15,72,60,48,54,50,46,92,71,51,30.09,29.95,13,2,17,0.00
2013-6-16,72,62,51,59,54,47,93,74,61,30.11,30.01,8,1,10,0.00
2013-6-17,73,60,51,56,52,49,94,76,44,30.12,29.93,9,0,13,0.04
2013-6-18,71,60,53,53,50,44,95,71,42,29.99,29.90,11,1,16,0.02
2013-6-19,63,57,50,56,51,47,93,82,68,30.03,29.94,6,0,8,0.02
2013-6-20,61,55,52,54,51,49,97,89,74,30.13,29.97,8,1,13,0.14
2013-6-21,65,58,52,55,52,50,97,81,62,30.19,30.13,7,1,9,0.00
2013-6-22,73,62,50,57,53,48,95,73,53,30.15,29.89,11,1,12,0.00
2013-6-23,70,63,58,62,57,51,94,81,67,29.89,29.63,4,0,4,0.04
2013-6-24,68,61,56,59,56,52,97,83,59,29.72,29.60,10,1,15,0.04
2013-6-25,69,60,55,59,56,53,97,87,64,29.87,29.70,8,1,13,0.90
2013-6-26,68,60,55,62,57,54,97,89,72,30.10,29.86,14,1,17,0.26
2013-6-27,66,62,57,64,59,54,97,93,82,30.23,30.07,7,0,8,0.19
2013-6-28,84,71,58,68,62,57,97,77,48,30.22,30.07,9,1,12,0.00
2013-6-29,80,70,62,67,62,57,94,76,59,30.14,30.03,11,1,13,0.00
2013-6-30,87,74,60,66,60,52,80,65,45,30.05,29.88,12,2,16,0.00
2013-7-1,84,72,62,67,61,57,86,70,56,30.06,29.94,9,1,13,0.00
2013-7-2,78,67,58,64,58,53,92,74,55,30.14,30.05,10,1,10,0.00
2013-7-3,75,65,58,58,53,48,83,67,45,30.18,30.07,11,2,16,0.00
2013-7-4,68,61,56,56,54,52,88,77,63,30.15,30.05,8,1,10,0.00
2013-7-5,71,62,52,58,55,50,94,78,61,30.06,29.98,7,0,8,0.00
2013-7-6,74,64,53,56,54,50,94,72,47,30.01,29.90,12,2,18,0.00
2013-7-7,75,65,56,62,57,52,92,75,58,29.98,29.90,8,0,8,0.00
2013-7-8,76,63,55,61,56,52,94,80,58,30.12,29.97,8,0,8,0.00
2013-7-9,80,68,55,61,57,52,93,70,46,30.14,30.03,10,1,14,0.00
2013-7-10,68,61,55,58,54,49,92,78,69,30.10,29.98,8,1,11,0.00
2013-7-11,65,58,54,52,50,48,81,73,58,30.11,30.01,12,1,15,0.00
2013-7-12,66,58,51,56,50,47,90,78,60,30.13,30.04,5,0,5,0.00
2013-7-13,72,61,49,54,48,44,91,66,36,30.23,30.13,12,2,18,0.00
2013-7-14,78,64,50,55,50,46,89,63,41,30.17,30.02,14,2,17,0.00
2013-7-15,77,66,52,54,50,46,89,58,36,30.08,29.92,17,3,23,0.00
2013-7-16,85,73,62,55,50,45,57,46,31,29.93,29.83,15,2,18,0.00
2013-7-17,71,65,59,58,56,53,86,72,57,30.22,29.90,14,1,15,0.00
2013-7-18,74,64,57,60,55,52,88,75,60,30.25,30.15,10,1,14,0.00
2013-7-19,77,64,53,63,57,51,95,78,60,30.20,30.07,8,1,10,0.00
2013-7-20,72,60,54,61,56,51,96,85,67,30.12,29.99,8,1,10,0.00
2013-7-21,71,62,53,61,56,51,96,83,69,30.01,29.93,7,1,9,0.00
2013-7-22,75,64,55,62,57,53,96,81,62,30.09,29.96,8,1,9,0.00
2013-7-23,81,65,52,60,54,50,96,73,39,30.10,30.00,10,1,15,0.00
2013-7-24,80,67,56,60,55,51,86,66,44,30.09,30.02,9,2,12,0.00
2013-7-25,80,67,53,59,54,49,90,66,45,30.13,30.06,0,0,0,0.00
2013-7-26,80,66,53,59,54,50,89,66,40,30.18,30.10,8,1,12,0.00
2013-7-27,74,63,52,56,52,49,92,70,48,30.19,30.03,6,0,6,0.00
2013-7-28,67,59,52,57,53,50,94,81,67,30.05,29.97,7,1,12,0.00
2013-7-29,72,61,52,57,54,50,94,77,59,30.04,29.98,6,1,8,0.00
2013-7-30,74,63,54,60,55,51,95,78,60,30.16,30.03,6,1,9,0.00
2013-7-31,70,61,54,61,56,52,96,85,72,30.15,30.02,6,0,8,0.00
2013-8-1,69,62,54,58,55,53,95,81,66,30.08,30.04,9,1,13,0.00
2013-8-2,60,58,56,58,56,53,97,92,86,30.16,30.06,3,0,3,0.12
2013-8-3,70,63,57,60,57,54,97,84,64,30.16,30.08,14,2,14,0.00
2013-8-4,76,65,52,61,57,50,95,77,59,30.10,29.97,12,2,17,0.00
2013-8-5,82,68,56,64,58,53,94,73,52,30.04,29.96,8,1,12,0.00
2013-8-6,82,68,54,59,55,50,87,66,42,30.04,29.95,7,1,10,0.00
2013-8-7,82,67,56,61,55,52,91,68,42,30.04,29.98,12,1,15,0.00
2013-8-8,80,66,56,62,57,53,94,75,51,30.06,29.97,6,1,7,0.00
2013-8-9,80,69,55,61,57,53,93,69,52,29.99,29.87,12,1,16,0.00
2013-8-10,74,65,58,64,60,57,97,85,69,30.04,29.91,6,0,6,0.23
2013-8-11,71,62,56,61,56,53,95,82,63,30.09,30.02,10,1,15,0.00
2013-8-12,75,64,56,59,56,52,91,76,52,30.10,30.03,13,1,13,0.00
2013-8-13,77,66,54,60,56,52,94,73,54,30.13,29.96,11,1,13,0.00
2013-8-14,82,65,56,62,57,51,95,76,41,29.98,29.92,11,0,13,0.10
2013-8-15,69,64,62,65,62,60,97,93,85,30.02,29.94,5,0,7,0.04
2013-8-16,80,69,60,64,61,56,98,77,45,30.04,29.96,10,1,10,0.00
2013-8-17,75,65,57,62,58,54,93,79,63,30.10,30.02,11,1,12,0.00
2013-8-18,74,64,58,62,57,55,92,80,63,30.15,30.10,13,1,21,0.00
2013-8-19,75,65,59,61,56,53,87,76,56,30.14,30.09,11,1,17,0.00
2013-8-20,72,64,57,56,52,48,85,67,44,30.19,30.10,16,2,20,0.00
2013-8-21,75,65,51,56,52,47,87,63,46,30.12,29.96,14,2,23,0.00
2013-8-22,80,68,54,59,53,48,83,61,43,29.98,29.83,10,1,16,0.00
2013-8-23,74,65,59,59,56,55,89,74,55,29.91,29.85,11,1,17,0.00
2013-8-24,70,63,56,61,57,52,95,82,59,29.95,29.88,10,1,11,0.02
2013-8-25,73,62,53,58,54,51,94,78,57,29.98,29.89,8,1,11,0.00
2013-8-26,75,63,56,60,55,52,93,77,46,29.98,29.87,10,1,16,0.04
2013-8-27,78,66,58,62,58,54,94,79,57,29.98,29.82,9,1,13,0.04
2013-8-28,77,67,58,65,60,56,98,81,58,29.92,29.85,10,1,16,0.22
2013-8-29,70,64,62,67,63,60,98,95,85,30.02,29.88,11,1,14,1.29
2013-8-30,74,65,58,62,58,54,96,79,57,30.16,30.02,12,2,16,0.00
2013-8-31,74,65,53,60,56,52,95,75,56,30.11,29.87,11,2,14,0.00
2013-9-1,78,66,57,64,58,54,95,77,52,29.91,29.82,9,1,11,0.00
2013-9-2,77,66,59,63,58,54,91,76,54,29.97,29.89,6,0,7,0.00
2013-9-3,71,63,59,65,60,55,97,89,71,30.06,29.97,6,0,8,0.25
2013-9-4,69,62,57,63,59,55,97,91,80,30.09,30.02,8,1,11,0.04
2013-9-5,67,61,58,63,59,56,98,94,78,30.07,29.96,19,0,20,0.38
2013-9-6,67,62,59,65,61,58,99,96,89,30.12,29.96,4,0,4,0.80
2013-9-7,70,62,58,63,59,57,98,90,74,30.13,30.05,9,1,9,0.00
2013-9-8,76,64,54,64,58,53,98,84,62,30.14,30.05,7,1,7,0.00
2013-9-9,74,63,53,63,58,52,98,85,65,30.10,30.01,10,1,12,0.00
2013-9-10,74,63,52,63,57,51,96,82,66,30.02,29.92,14,2,21,0.00
2013-9-11,86,73,61,64,59,55,86,65,40,29.98,29.90,12,2,15,0.00
2013-9-12,77,66,58,65,60,56,96,82,64,30.03,29.93,6,1,7,0.00
2013-9-13,66,61,58,62,59,56,98,93,86,29.99,29.90,4,0,4,0.00
2013-9-14,67,62,58,61,59,56,95,90,80,29.91,29.77,10,1,12,0.00
2013-9-15,64,59,55,62,58,54,98,96,91,29.83,29.74,7,0,8,0.14
2013-9-16,65,59,56,61,58,55,97,95,85,29.96,29.81,12,1,17,0.10
2013-9-17,62,57,53,57,55,52,98,92,77,29.96,29.89,0,0,0,0.00
2013-9-18,64,57,52,56,52,48,98,85,58,30.10,29.96,7,0,8,0.00
2013-9-19,74,61,49,56,51,46,96,72,39,30.07,29.78,0,0,0,0.00
2013-9-20,71,60,51,58,53,47,96,79,58,29.78,29.62,9,1,10,0.04
2013-9-21,65,57,52,57,54,50,97,88,70,29.75,29.67,5,0,6,0.00
2013-9-22,58,55,54,57,54,52,97,94,91,29.74,29.57,13,2,18,0.52
2013-9-23,62,54,50,56,52,48,96,92,74,29.98,29.74,10,1,14,0.12
2013-9-24,61,52,47,54,49,46,98,91,64,29.98,29.86,8,1,12,0.69
2013-9-25,57,51,48,50,48,46,97,90,73,30.05,29.88,13,2,19,0.12
2013-9-26,59,50,44,52,47,43,98,91,71,30.14,30.04,7,0,8,0.00
2013-9-27,56,53,48,54,51,46,96,93,88,30.13,29.86,10,1,17,0.00
2013-9-28,58,54,50,58,53,48,99,97,94,29.86,29.34,16,2,28,1.82
2013-9-29,52,51,48,52,50,46,98,97,94,29.55,29.16,13,3,23,1.49
2013-9-30,58,51,47,53,48,45,97,90,72,29.91,29.41,12,2,17,0.06
2013-10-1,57,50,46,50,47,45,97,88,68,30.12,29.91,11,1,16,0.12
2013-10-2,54,49,45,50,47,44,97,93,80,30.20,30.06,10,1,11,0.31
2013-10-3,54,48,45,50,46,44,98,93,80,30.46,30.20,5,0,7,0.00
2013-10-4,60,49,41,52,46,40,99,90,71,30.49,30.36,5,0,5,0.00
2013-10-5,65,54,44,53,47,43,98,81,49,30.37,30.15,8,1,10,0.00
2013-10-6,70,56,44,53,47,42,96,75,38,30.15,29.89,14,1,20,0.04
2013-10-7,61,54,48,54,50,46,95,88,65,30.03,29.88,17,1,21,0.02
2013-10-8,52,48,45,51,46,40,97,90,74,30.09,29.98,15,1,25,0.24
2013-10-9,55,48,41,48,44,39,96,86,68,30.15,29.97,6,0,6,0.00
2013-10-10,56,49,45,50,46,44,98,91,76,30.10,29.96,7,0,9,0.00
2013-10-11,55,50,48,50,47,46,96,90,74,30.16,30.08,5,0,5,0.00
2013-10-12,54,49,46,49,46,44,97,91,77,30.23,30.08,11,1,15,0.10
2013-10-13,56,47,41,49,44,40,97,88,65,30.38,30.23,11,1,14,0.00
2013-10-14,56,48,42,47,44,40,97,87,66,30.44,30.37,14,1,16,0.00
2013-10-15,58,48,42,50,45,41,97,89,70,30.40,30.19,7,0,13,0.00
2013-10-16,56,49,45,50,46,43,96,91,80,30.22,30.16,0,0,0,0.00
2013-10-17,54,49,44,49,46,43,97,92,80,30.29,30.21,0,0,0,0.00
2013-10-18,55,47,43,50,45,41,98,93,83,30.27,30.16,0,0,0,0.00
2013-10-19,49,45,41,47,44,40,98,96,94,30.22,30.16,0,0,0,0.00
2013-10-20,48,46,45,47,45,44,98,97,96,30.22,30.16,0,0,0,0.00
2013-10-21,49,46,45,48,46,44,98,98,96,30.19,30.12,0,0,0,0.00
2013-10-22,54,47,44,51,46,43,99,96,89,30.14,30.05,0,0,0,0.00
2013-10-23,59,49,44,54,47,43,99,94,77,30.07,30.00,0,0,0,0.00
2013-10-24,50,45,39,48,44,38,98,97,94,30.14,30.04,0,0,0,0.02
2013-10-25,51,48,46,50,47,45,99,97,93,30.33,30.14,0,0,0,0.04
2013-10-26,54,50,47,49,47,46,97,91,80,30.35,30.20,0,0,0,0.00
2013-10-27,57,51,46,49,44,39,98,80,58,30.22,29.91,19,2,26,0.13
2013-10-28,54,51,46,39,34,30,62,51,41,29.96,29.91,17,4,28,0.00
2013-10-29,54,45,38,41,37,31,89,73,52,30.05,29.96,7,0,8,0.00
2013-10-30,53,46,38,48,42,36,96,86,77,30.13,30.04,12,1,16,0.00
2013-10-31,53,49,47,50,47,43,94,91,85,30.27,30.07,16,0,18,0.00
2013-11-1,57,52,47,51,49,45,97,90,77,30.28,29.84,7,1,8,0.00
2013-11-2,52,48,40,50,44,38,98,89,73,29.89,29.45,16,1,35,0.39
2013-11-3,49,41,35,44,38,34,98,91,68,30.12,29.89,8,0,10,0.03
2013-11-4,46,42,36,43,39,34,97,89,75,30.20,30.06,5,0,7,0.00
2013-11-5,46,44,42,45,43,39,97,96,89,30.27,30.01,8,0,11,0.02
2013-11-6,50,46,42,46,44,42,98,94,85,30.34,30.04,2,0,2,0.11
2013-11-7,52,47,45,51,46,44,99,97,94,30.04,29.70,17,2,20,0.86
2013-11-8,51,46,41,47,44,40,98,94,81,30.16,29.96,0,0,0,0.00
2013-11-9,49,44,40,46,43,39,98,96,87,30.16,30.09,7,0,7,0.05
2013-11-10,49,45,44,46,43,41,97,93,87,30.17,30.11,15,3,17,0.11
2013-11-11,55,48,43,49,44,41,93,86,72,30.18,30.02,10,1,14,0.00
2013-11-12,54,50,48,53,48,43,98,93,76,30.35,30.03,9,1,12,0.16
2013-11-13,54,50,47,50,48,46,97,92,80,30.44,30.32,4,0,6,0.00
2013-11-14,49,46,41,48,45,40,98,96,94,30.32,30.07,2,0,2,0.06
2013-11-15,47,44,41,46,42,40,98,96,92,30.08,29.34,9,1,10,0.02
2013-11-16,47,41,35,43,38,34,98,91,76,29.78,29.35,6,0,9,0.00
2013-11-17,50,44,36,47,42,34,97,94,87,29.90,29.76,10,1,11,0.00
2013-11-18,50,47,44,50,46,43,99,97,94,29.90,29.54,15,2,18,0.96
2013-11-19,50,42,36,50,38,26,99,89,63,30.09,29.54,12,2,19,0.14
2013-11-20,40,36,32,32,29,25,86,76,69,30.51,30.08,14,3,20,0.00
2013-11-21,40,34,29,32,28,26,92,81,59,30.67,30.50,11,1,18,0.00
2013-11-22,43,37,32,35,32,29,92,82,70,30.65,30.46,10,2,15,0.00
2013-11-23,47,40,34,39,35,32,92,84,66,30.45,30.21,8,1,8,0.00
2013-11-24,47,40,37,43,38,35,97,93,83,30.26,30.18,7,0,10,0.00
2013-11-25,46,39,33,43,37,32,98,94,85,30.32,30.26,3,0,3,0.00
2013-11-26,50,41,32,43,37,31,98,88,65,30.28,30.10,8,0,8,0.00
2013-11-27,52,45,40,44,40,37,93,84,69,30.10,29.98,7,0,8,0.00
2013-11-28,46,40,35,44,38,34,98,95,90,30.19,30.04,0,0,0,0.00
2013-11-29,46,42,36,44,41,35,98,96,92,30.32,30.18,3,0,3,0.02
2013-11-30,49,46,44,46,45,43,98,95,89,30.32,30.07,13,2,17,0.00
2013-12-1,52,48,42,50,46,40,99,94,86,30.07,29.74,15,1,17,0.05
2013-12-2,42,37,32,40,33,26,95,86,69,30.07,29.81,13,1,14,0.00
2013-12-3,37,33,31,26,21,18,74,62,48,30.31,30.06,20,4,33,0.02
2013-12-4,35,30,26,26,23,20,87,75,61,30.36,30.29,10,0,14,0.00
2013-12-5,32,28,24,28,24,19,92,85,71,30.32,30.19,0,0,0,0.00
2013-12-6,30,26,23,23,14,9,87,61,46,30.24,30.15,14,0,21,0.00
2013-12-7,28,24,20,14,11,6,71,58,41,30.42,30.24,14,0,18,0.00
2013-12-8,30,25,20,20,17,13,83,72,57,30.57,30.41,0,0,0,0.00
2013-12-9,30,27,22,26,22,17,91,82,71,30.58,30.48,0,0,0,0.00
2013-12-10,37,32,28,33,30,25,95,92,87,30.50,30.42,0,0,0,0.00
2013-12-11,36,33,29,34,31,28,97,95,93,30.42,30.17,0,0,0,0.00
2013-12-12,41,36,30,39,34,29,97,94,82,30.17,30.04,11,1,22,0.02
2013-12-13,45,43,40,44,42,39,97,96,93,30.41,30.11,6,0,13,0.00
2013-12-14,46,45,43,44,43,42,97,94,89,30.43,30.31,10,1,15,0.00
2013-12-15,50,46,43,47,44,42,97,94,89,30.46,30.31,13,0,15,0.02
2013-12-16,47,43,37,45,42,36,98,96,90,30.50,30.28,3,0,3,0.02
2013-12-17,40,39,38,40,38,37,98,98,97,30.28,30.11,5,0,6,0.00
2013-12-18,42,39,34,41,37,32,98,92,76,30.17,30.03,12,1,16,0.02
2013-12-19,39,35,32,33,26,22,91,70,55,30.35,30.16,10,1,16,0.00
2013-12-20,40,35,31,39,33,26,98,93,76,30.20,29.72,14,1,29,0.10
2013-12-21,42,40,39,41,40,38,98,97,96,30.17,29.86,5,0,5,0.10
2013-12-22,47,44,41,46,43,40,99,98,98,30.30,30.16,7,0,8,0.04
2013-12-23,54,46,36,50,44,35,98,93,80,30.52,30.12,10,2,18,0.00
2013-12-24,44,38,34,41,37,33,98,94,86,30.63,30.52,4,0,4,0.04
2013-12-25,41,37,33,38,35,32,98,95,89,30.54,30.40,6,0,6,0.00
2013-12-26,42,36,32,39,35,31,98,95,89,30.41,30.21,4,0,4,0.00
2013-12-27,43,38,31,42,37,30,99,98,97,30.38,30.10,5,0,5,0.02
2013-12-28,45,41,37,43,40,36,98,97,93,30.54,30.37,4,0,4,0.00
2013-12-29,43,40,37,41,39,36,99,97,93,30.49,30.32,0,0,0,0.00
2013-12-30,42,40,38,41,39,38,99,97,96,30.32,30.13,4,0,6,0.00
2013-12-31,44,41,38,43,40,37,99,97,95,30.39,30.19,3,0,3,0.00
2014-1-1,42,40,37,42,40,36,99,98,97,30.42,30.25,3,0,3,0.03
2014-1-2,50,44,40,44,42,40,99,93,70,30.25,29.89,14,1,31,0.22